Time;durP1;ratioP1;P1;durP2;ratioP2;P2;SDS_P1;SDS_P2;PMS_P1;PMS_P2;Temp;Humidity;BMP_temperature;BMP_pressure;BME280_temperature;BME280_humidity;BME280_pressure;Samples;Min_cycle;Max_cycle;Signal;HPM_P1;HPM_P2
2024/01/01 00:00:08;;;;;;;24.50;11.73;;;;;;;9.44;68.26;99928.25;7397230;19;20027;-60
2024/01/01 00:02:36;;;;;;;20.05;8.15;;;;;;;9.46;68.30;99941.34;7397227;19;20048;-61
2024/01/01 00:05:05;;;;;;;15.25;7.75;;;;;;;9.52;68.02;99932.91;7393122;19;20043;-60
2024/01/01 00:07:33;;;;;;;27.63;10.82;;;;;;;9.53;68.06;99938.06;7396257;19;20022;-61
2024/01/01 00:10:02;;;;;;;20.98;8.40;;;;;;;9.44;68.29;99932.72;7396910;19;20481;-61
2024/01/01 00:12:31;;;;;;;17.85;6.95;;;;;;;9.44;68.38;99941.47;7396272;19;20023;-59
2024/01/01 00:14:59;;;;;;;15.82;7.25;;;;;;;9.48;68.23;99928.84;7392417;19;20006;-60
2024/01/01 00:17:28;;;;;;;13.20;6.53;;;;;;;9.62;67.93;99927.72;7394761;19;20033;-60
2024/01/01 00:19:59;;;;;;;12.70;5.53;;;;;;;9.56;67.94;99925.56;7394442;19;20038;-60
2024/01/01 00:22:27;;;;;;;13.50;4.63;;;;;;;9.56;68.43;99917.66;7396298;19;20014;-60
2024/01/01 00:24:55;;;;;;;12.73;3.92;;;;;;;9.55;68.39;99930.03;7393718;19;20502;-56
2024/01/01 00:27:24;;;;;;;11.90;4.28;;;;;;;9.57;68.38;99936.00;7396638;19;20018;-57
2024/01/01 00:29:52;;;;;;;13.00;5.38;;;;;;;9.53;68.45;99931.94;7394698;19;20029;-56
2024/01/01 00:32:20;;;;;;;9.65;3.60;;;;;;;9.51;68.54;99925.97;7398905;19;20283;-58
2024/01/01 00:34:48;;;;;;;13.23;4.00;;;;;;;9.53;68.72;99924.00;7393359;19;20483;-59
2024/01/01 00:37:15;;;;;;;11.10;3.72;;;;;;;9.55;68.78;99926.56;7394384;19;20023;-57
2024/01/01 00:39:43;;;;;;;10.00;3.72;;;;;;;9.45;68.59;99918.53;7395243;19;20022;-58
2024/01/01 00:42:11;;;;;;;9.98;3.50;;;;;;;9.51;68.85;99929.44;7395686;19;20017;-59
2024/01/01 00:44:39;;;;;;;10.48;3.55;;;;;;;9.65;68.82;99933.56;7390374;19;20024;-57
2024/01/01 00:47:07;;;;;;;10.73;3.53;;;;;;;9.57;68.61;99930.72;7395206;19;20018;-58
2024/01/01 00:49:35;;;;;;;9.10;3.65;;;;;;;9.49;69.03;99926.06;7393348;19;20026;-58
2024/01/01 00:52:03;;;;;;;8.48;3.25;;;;;;;9.57;68.95;99945.75;7394737;19;20029;-58
2024/01/01 00:54:31;;;;;;;9.73;3.30;;;;;;;9.48;69.01;99944.72;7392618;19;20022;-58
2024/01/01 00:56:59;;;;;;;7.65;2.75;;;;;;;9.49;69.03;99939.28;7393992;19;20086;-58
2024/01/01 00:59:27;;;;;;;9.93;3.30;;;;;;;9.51;69.26;99947.94;7393492;19;20459;-57
2024/01/01 01:01:55;;;;;;;9.18;3.28;;;;;;;9.47;69.55;99945.69;7394405;19;20385;-58
2024/01/01 01:04:23;;;;;;;10.82;3.92;;;;;;;9.50;69.25;99955.97;7391362;19;20023;-58
2024/01/01 01:06:52;;;;;;;8.82;3.53;;;;;;;9.48;69.47;99945.53;7392117;19;20041;-57
2024/01/01 01:09:20;;;;;;;10.10;3.10;;;;;;;9.52;69.60;99956.72;7394938;19;20530;-58
2024/01/01 01:11:48;;;;;;;6.93;2.88;;;;;;;9.58;68.89;99945.63;7393550;19;20420;-58
2024/01/01 01:14:16;;;;;;;9.45;3.47;;;;;;;9.50;69.60;99953.34;7393606;19;20026;-57
2024/01/01 01:16:45;;;;;;;10.40;3.63;;;;;;;9.41;69.84;99954.94;7393110;19;20018;-58
2024/01/01 01:19:13;;;;;;;8.23;3.40;;;;;;;9.46;69.84;99947.50;7389554;19;20465;-58
2024/01/01 01:21:41;;;;;;;8.43;3.10;;;;;;;9.47;69.86;99946.53;7393763;19;20756;-57
2024/01/01 01:24:11;;;;;;;8.05;3.03;;;;;;;9.43;69.95;99950.38;7393066;19;20018;-58
2024/01/01 01:26:39;;;;;;;8.23;3.28;;;;;;;9.48;69.78;99956.13;7393071;19;20346;-55
2024/01/01 01:29:07;;;;;;;7.55;2.90;;;;;;;9.41;69.92;99948.81;7392955;19;20018;-59
2024/01/01 01:31:35;;;;;;;8.60;3.10;;;;;;;9.55;69.49;99958.28;7390836;19;20026;-55
2024/01/01 01:34:03;;;;;;;9.95;3.28;;;;;;;9.55;69.47;99961.75;7392606;19;20018;-58
2024/01/01 01:36:31;;;;;;;10.80;3.40;;;;;;;9.41;69.76;99951.47;7392781;19;20036;-57
2024/01/01 01:38:59;;;;;;;12.95;3.97;;;;;;;9.50;69.76;99958.63;7390585;19;20385;-58
2024/01/01 01:41:27;;;;;;;13.25;3.72;;;;;;;9.47;69.87;99964.19;7391908;19;20015;-56
2024/01/01 01:43:55;;;;;;;12.48;5.03;;;;;;;9.59;69.88;99955.25;7388461;19;20101;-57
2024/01/01 01:46:24;;;;;;;11.00;4.53;;;;;;;9.66;69.48;99971.44;7389689;19;20022;-57
2024/01/01 01:48:52;;;;;;;12.05;5.60;;;;;;;9.58;69.63;99953.56;7392809;19;20015;-57
2024/01/01 01:51:20;;;;;;;11.65;5.10;;;;;;;9.57;69.66;99951.03;7389174;19;20071;-58
2024/01/01 01:53:48;;;;;;;11.80;4.90;;;;;;;9.43;70.31;99950.38;7391646;19;20027;-57
2024/01/01 01:56:17;;;;;;;12.70;5.18;;;;;;;9.57;70.31;99956.31;7390637;19;20047;-59
2024/01/01 01:58:45;;;;;;;12.88;5.18;;;;;;;9.49;69.86;99960.44;7390644;19;20043;-59
2024/01/01 02:01:13;;;;;;;10.57;4.82;;;;;;;9.53;69.93;99961.84;7393231;19;20022;-57
2024/01/01 02:03:43;;;;;;;12.77;4.75;;;;;;;9.48;70.23;99947.34;7391703;19;20493;-57
2024/01/01 02:06:11;;;;;;;13.63;5.43;;;;;;;9.55;70.07;99958.28;7390262;19;20495;-59
2024/01/01 02:08:39;;;;;;;11.90;4.90;;;;;;;9.53;69.99;99955.72;7392303;19;20014;-58
2024/01/01 02:11:07;;;;;;;12.38;4.80;;;;;;;9.56;69.91;99957.28;7390355;19;20022;-59
2024/01/01 02:13:35;;;;;;;12.15;4.90;;;;;;;9.55;70.29;99952.97;7390839;19;20035;-58
2024/01/01 02:16:03;;;;;;;11.65;5.00;;;;;;;9.54;70.03;99954.78;7395967;19;20344;-59
2024/01/01 02:18:31;;;;;;;10.65;4.45;;;;;;;9.55;69.91;99943.25;7389269;19;20015;-59
2024/01/01 02:20:59;;;;;;;10.32;4.63;;;;;;;9.58;70.01;99945.63;7391847;19;20035;-59
2024/01/01 02:23:29;;;;;;;15.30;5.28;;;;;;;9.55;70.00;99939.78;7391208;19;20022;-59
2024/01/01 02:25:57;;;;;;;11.35;4.47;;;;;;;9.50;69.75;99942.75;7391603;19;20018;-58
2024/01/01 02:28:25;;;;;;;14.05;5.63;;;;;;;9.49;70.00;99944.56;7392373;19;20078;-59
2024/01/01 02:30:52;;;;;;;13.25;4.70;;;;;;;9.57;69.71;99941.28;7390577;19;20498;-59
2024/01/01 02:33:21;;;;;;;13.75;4.72;;;;;;;9.60;69.76;99938.41;7391038;19;20450;-55
2024/01/01 02:35:48;;;;;;;13.88;4.22;;;;;;;9.57;69.81;99951.03;7391125;19;20043;-58
2024/01/01 02:38:16;;;;;;;11.23;4.85;;;;;;;9.56;69.60;99942.28;7391008;19;20020;-59
2024/01/01 02:40:44;;;;;;;10.73;3.92;;;;;;;9.65;69.29;99935.38;7391477;19;20658;-59
2024/01/01 02:43:12;;;;;;;9.15;4.03;;;;;;;9.63;69.38;99939.97;7390467;19;20036;-58
2024/01/01 02:45:40;;;;;;;12.32;4.50;;;;;;;9.53;69.48;99935.44;7393871;19;20021;-57
2024/01/01 02:48:08;;;;;;;12.63;4.43;;;;;;;9.53;69.51;99939.88;7393540;19;20400;-58
2024/01/01 02:50:37;;;;;;;14.90;4.70;;;;;;;9.64;69.24;99934.53;7390692;19;20047;-58
2024/01/01 02:53:08;;;;;;;12.70;4.35;;;;;;;9.62;69.44;99939.13;7389818;19;20035;-58
2024/01/01 02:55:35;;;;;;;12.13;4.95;;;;;;;9.69;69.39;99942.09;7390758;19;20015;-59
2024/01/01 02:58:04;;;;;;;11.00;4.20;;;;;;;9.58;69.47;99940.34;7390290;19;20019;-59
2024/01/01 03:00:32;;;;;;;10.00;4.30;;;;;;;9.68;69.08;99943.06;7391086;19;20078;-58
2024/01/01 03:03:00;;;;;;;10.20;4.30;;;;;;;9.63;69.45;99945.25;7391436;19;20026;-58
2024/01/01 03:05:28;;;;;;;12.45;5.18;;;;;;;9.66;69.41;99932.63;7388152;19;20051;-57
2024/01/01 03:07:56;;;;;;;14.88;5.50;;;;;;;9.64;69.32;99941.63;7391100;19;20043;-59
2024/01/01 03:10:24;;;;;;;15.18;5.10;;;;;;;9.56;69.36;99936.16;7390813;19;20019;-58
2024/01/01 03:12:52;;;;;;;14.93;6.15;;;;;;;9.67;68.98;99938.75;7390316;19;20015;-58
2024/01/01 03:15:20;;;;;;;16.02;6.50;;;;;;;9.58;69.00;99932.44;7390646;19;20039;-58
2024/01/01 03:17:48;;;;;;;14.00;6.53;;;;;;;9.61;69.38;99920.75;7390273;19;20035;-57
2024/01/01 03:20:16;;;;;;;14.52;6.60;;;;;;;9.56;69.29;99923.78;7390830;19;20022;-59
2024/01/01 03:22:45;;;;;;;14.70;7.35;;;;;;;9.70;68.98;99939.34;7390416;19;20365;-59
2024/01/01 03:25:13;;;;;;;17.73;8.63;;;;;;;9.72;68.10;99940.03;7388124;19;20023;-59
2024/01/01 03:27:40;;;;;;;18.48;9.13;;;;;;;9.51;68.66;99945.31;7389539;19;20022;-58
2024/01/01 03:30:09;;;;;;;17.05;8.63;;;;;;;9.64;68.71;99941.63;7389586;19;20015;-57
2024/01/01 03:32:37;;;;;;;17.95;8.57;;;;;;;9.67;68.67;99941.38;7390319;19;20032;-59
2024/01/01 03:35:05;;;;;;;19.00;8.82;;;;;;;9.71;68.33;99946.28;7388181;19;20023;-59
2024/01/01 03:37:33;;;;;;;20.13;9.02;;;;;;;9.73;68.19;99943.53;7388805;19;20485;-58
2024/01/01 03:40:03;;;;;;;18.33;9.50;;;;;;;9.70;68.09;99941.13;7386578;19;20516;-59
2024/01/01 03:42:31;;;;;;;20.38;10.07;;;;;;;9.64;68.29;99939.00;7386598;19;20044;-59
2024/01/01 03:44:59;;;;;;;20.75;10.80;;;;;;;9.71;68.03;99940.16;7387201;19;20023;-58
2024/01/01 03:47:28;;;;;;;19.55;9.45;;;;;;;9.74;68.15;99939.91;7389172;19;20015;-57
2024/01/01 03:49:56;;;;;;;19.02;10.00;;;;;;;9.80;68.00;99941.19;7388095;19;20014;-59
2024/01/01 03:52:24;;;;;;;18.38;10.23;;;;;;;9.72;67.81;99940.03;7388049;19;20094;-59
2024/01/01 03:54:52;;;;;;;21.00;10.45;;;;;;;9.70;68.05;99944.63;7391456;19;20032;-57
2024/01/01 03:57:21;;;;;;;18.83;9.32;;;;;;;9.72;67.83;99949.75;7396691;19;20036;-59
2024/01/01 03:59:52;;;;;;;20.50;10.50;;;;;;;9.60;67.88;99942.84;7394605;19;20035;-57
2024/01/01 04:02:19;;;;;;;20.55;9.88;;;;;;;9.72;67.99;99941.84;7397069;19;20043;-57
2024/01/01 04:04:49;;;;;;;17.77;9.27;;;;;;;9.74;67.37;99947.84;7394668;19;20025;-57
2024/01/01 04:07:17;;;;;;;20.58;10.30;;;;;;;9.63;68.05;99951.38;7395001;19;20022;-55
2024/01/01 04:09:45;;;;;;;18.02;9.50;;;;;;;9.68;67.94;99943.06;7396121;19;20023;-57
2024/01/01 04:12:13;;;;;;;20.77;10.05;;;;;;;9.70;67.70;99941.13;7396789;19;20030;-57
2024/01/01 04:14:41;;;;;;;18.48;9.82;;;;;;;9.75;67.83;99936.28;7393828;19;20122;-55
2024/01/01 04:17:10;;;;;;;18.58;9.52;;;;;;;9.80;67.62;99939.38;7396339;19;20033;-57
2024/01/01 04:19:38;;;;;;;20.55;10.27;;;;;;;9.64;67.83;99936.34;7392776;19;20015;-58
2024/01/01 04:22:06;;;;;;;20.50;10.00;;;;;;;9.68;67.90;99930.66;7395794;19;20018;-59
2024/01/01 04:24:34;;;;;;;18.40;9.85;;;;;;;9.61;68.09;99931.31;7393944;19;20046;-57
2024/01/01 04:27:02;;;;;;;20.55;10.38;;;;;;;9.68;67.68;99930.66;7395796;19;20011;-59
2024/01/01 04:29:30;;;;;;;21.67;10.38;;;;;;;9.72;67.96;99933.91;7395417;19;20018;-59
2024/01/01 04:31:58;;;;;;;18.85;9.23;;;;;;;9.70;67.86;99927.91;7395175;19;20021;-59
2024/01/01 04:34:26;;;;;;;18.75;9.10;;;;;;;9.71;67.69;99934.88;7393287;19;20027;-58
2024/01/01 04:36:54;;;;;;;19.85;9.95;;;;;;;9.75;66.87;99936.28;7393384;19;20130;-59
2024/01/01 04:39:22;;;;;;;19.33;9.27;;;;;;;9.61;67.34;99933.94;7393752;19;20094;-56
2024/01/01 04:41:50;;;;;;;16.73;8.50;;;;;;;9.65;67.41;99938.03;7395591;19;20497;-55
2024/01/01 04:44:18;;;;;;;18.38;9.10;;;;;;;9.61;67.15;99932.16;7393639;19;20381;-60
2024/01/01 04:46:46;;;;;;;15.73;7.50;;;;;;;9.65;67.13;99922.16;7394657;19;20019;-59
2024/01/01 04:49:14;;;;;;;16.65;8.05;;;;;;;9.64;66.83;99925.78;7395304;19;20043;-60
2024/01/01 04:51:42;;;;;;;20.25;7.35;;;;;;;9.61;66.42;99931.31;7394724;19;20014;-59
2024/01/01 04:54:09;;;;;;;15.25;6.75;;;;;;;9.61;67.20;99939.25;7393505;19;20374;-58
2024/01/01 04:56:37;;;;;;;17.02;7.53;;;;;;;9.57;67.67;99940.47;7394214;19;20023;-59
2024/01/01 04:59:06;;;;;;;13.55;6.78;;;;;;;9.53;68.26;99934.59;7393638;19;20332;-59
2024/01/01 05:01:34;;;;;;;13.52;6.50;;;;;;;9.39;68.79;99933.09;7394682;19;20022;-57
2024/01/01 05:04:03;;;;;;;13.77;6.50;;;;;;;9.40;68.76;99932.13;7392865;19;20022;-59
2024/01/01 05:06:31;;;;;;;11.55;5.68;;;;;;;9.47;68.11;99932.47;7393976;19;20054;-59
2024/01/01 05:08:59;;;;;;;12.52;4.72;;;;;;;9.56;67.64;99934.34;7395078;19;20371;-59
2024/01/01 05:11:29;;;;;;;12.27;4.05;;;;;;;9.52;67.79;99941.69;7394576;19;20018;-59
2024/01/01 05:13:57;;;;;;;11.50;3.90;;;;;;;9.45;67.69;99935.22;7393647;19;20043;-59
2024/01/01 05:16:25;;;;;;;10.52;3.40;;;;;;;9.57;67.57;99936.00;7393980;19;20014;-59
2024/01/01 05:18:53;;;;;;;9.65;3.20;;;;;;;9.53;67.63;99938.06;7394222;19;20018;-54
2024/01/01 05:21:21;;;;;;;11.27;4.00;;;;;;;9.41;68.23;99938.25;7393672;19;20149;-54
2024/01/01 05:23:49;;;;;;;9.63;4.05;;;;;;;9.44;68.47;99938.84;7391269;19;20022;-54
2024/01/01 05:26:17;;;;;;;9.55;3.95;;;;;;;9.56;68.59;99942.28;7393523;19;20018;-57
2024/01/01 05:28:45;;;;;;;11.50;3.63;;;;;;;9.64;68.36;99936.34;7392003;19;20018;-58
2024/01/01 05:31:19;;;;;;;8.80;3.78;;;;;;;9.56;68.50;99944.91;7391847;19;20025;-59
2024/01/01 05:33:47;;;;;;;9.57;4.07;;;;;;;9.42;69.30;99943.41;7392755;19;20495;-59
2024/01/01 05:36:15;;;;;;;10.75;4.00;;;;;;;9.55;69.25;99947.69;7393027;19;20369;-59
2024/01/01 05:38:43;;;;;;;11.55;4.18;;;;;;;9.50;69.64;99951.56;7393264;19;20511;-59
2024/01/01 05:41:11;;;;;;;11.93;4.13;;;;;;;9.31;69.98;99945.25;7392924;19;20014;-59
2024/01/01 05:43:39;;;;;;;11.70;4.03;;;;;;;9.41;70.15;99946.19;7392227;19;20022;-59
2024/01/01 05:46:07;;;;;;;9.90;3.88;;;;;;;9.46;70.31;99951.91;7396680;19;20010;-59
2024/01/01 05:48:35;;;;;;;9.43;3.55;;;;;;;9.20;71.39;99943.50;7391374;19;20021;-59
2024/01/01 05:51:11;;;;;;;10.15;4.05;;;;;;;9.08;72.29;99973.50;7393317;19;20018;-59
2024/01/01 05:53:39;;;;;;;10.35;3.40;;;;;;;8.98;72.69;99963.69;7391883;19;20033;-58
2024/01/01 05:56:07;;;;;;;8.35;3.38;;;;;;;9.09;72.93;99957.56;7390615;19;20022;-59
2024/01/01 05:58:35;;;;;;;7.88;3.10;;;;;;;9.09;73.06;99969.94;7392922;19;20018;-59
2024/01/01 06:01:03;;;;;;;9.32;3.40;;;;;;;9.01;73.72;99970.53;7390914;19;20029;-58
2024/01/01 06:03:31;;;;;;;8.35;3.08;;;;;;;9.03;73.90;99973.88;7390583;19;20018;-58
2024/01/01 06:05:59;;;;;;;7.43;3.03;;;;;;;9.05;74.36;99977.25;7391860;19;20007;-58
2024/01/01 06:08:27;;;;;;;8.63;3.65;;;;;;;8.92;74.79;99974.72;7392257;19;20039;-58
2024/01/01 06:10:55;;;;;;;11.88;3.35;;;;;;;9.01;74.99;99979.31;7392460;19;20389;-59
2024/01/01 06:13:24;;;;;;;14.02;3.63;;;;;;;8.91;75.59;99980.16;7391562;19;20381;-57
2024/01/01 06:15:52;;;;;;;11.73;3.58;;;;;;;8.91;76.38;99986.25;7395405;19;20043;-59
2024/01/01 06:18:24;;;;;;;8.40;3.40;;;;;;;8.93;76.50;99987.00;7390916;19;20018;-59
2024/01/01 06:20:52;;;;;;;11.00;3.72;;;;;;;8.87;77.21;99992.75;7390345;19;20447;-59
2024/01/01 06:23:20;;;;;;;8.88;3.22;;;;;;;8.78;77.82;99994.31;7391372;19;20043;-57
2024/01/01 06:25:48;;;;;;;9.77;3.08;;;;;;;8.76;77.96;99992.75;7390025;19;20088;-58
2024/01/01 06:28:16;;;;;;;12.23;3.63;;;;;;;8.74;78.27;99999.97;7392436;19;20021;-58
2024/01/01 06:30:45;;;;;;;10.50;3.42;;;;;;;8.76;78.56;99993.59;7391628;19;20015;-58
2024/01/01 06:33:13;;;;;;;11.85;3.20;;;;;;;8.85;78.85;99996.47;7390555;19;20018;-59
2024/01/01 06:35:41;;;;;;;7.47;3.10;;;;;;;8.72;79.38;99988.69;7390782;19;20014;-57
2024/01/01 06:38:09;;;;;;;9.07;3.00;;;;;;;8.54;80.39;99991.78;7390270;19;20014;-59
2024/01/01 06:40:37;;;;;;;8.52;3.35;;;;;;;8.58;80.01;99996.81;7388532;19;20026;-59
2024/01/01 06:43:05;;;;;;;11.38;3.30;;;;;;;8.65;79.85;100000.66;7391349;19;20022;-59
2024/01/01 06:45:33;;;;;;;11.80;3.58;;;;;;;8.53;80.13;99986.63;7393712;19;20043;-59
2024/01/01 06:48:01;;;;;;;9.63;3.08;;;;;;;8.40;80.92;99988.56;7389760;19;20026;-59
2024/01/01 06:50:30;;;;;;;7.30;2.72;;;;;;;8.53;79.96;99987.47;7390902;19;20053;-59
2024/01/01 06:52:58;;;;;;;9.82;2.70;;;;;;;8.54;79.68;99989.13;7391174;19;20612;-59
2024/01/01 06:55:27;;;;;;;8.85;2.78;;;;;;;8.49;79.69;99993.09;7388628;19;20018;-59
2024/01/01 06:57:55;;;;;;;9.48;2.70;;;;;;;8.56;79.62;99998.75;7391222;19;20018;-59
2024/01/01 07:00:23;;;;;;;8.50;2.53;;;;;;;8.49;79.92;99991.31;7389774;19;20021;-59
2024/01/01 07:02:52;;;;;;;6.70;2.78;;;;;;;8.57;79.74;99993.34;7391166;19;20025;-58
2024/01/01 07:05:21;;;;;;;9.80;2.78;;;;;;;8.49;79.96;99993.94;7389391;19;20025;-59
2024/01/01 07:07:50;;;;;;;7.25;2.20;;;;;;;8.66;79.51;100002.34;7390934;19;20035;-59
2024/01/01 07:10:18;;;;;;;9.82;2.40;;;;;;;8.78;79.21;100001.41;7390509;19;20021;-59
2024/01/01 07:12:46;;;;;;;8.20;2.17;;;;;;;8.56;79.77;100001.41;7390629;19;20018;-58
2024/01/01 07:15:14;;;;;;;7.13;1.92;;;;;;;8.50;80.15;100000.88;7390769;19;20082;-58
2024/01/01 07:17:42;;;;;;;9.30;2.38;;;;;;;8.40;80.59;100002.56;7390768;19;20023;-59
2024/01/01 07:20:10;;;;;;;12.23;2.53;;;;;;;8.50;80.44;100006.16;7389541;19;20018;-58
2024/01/01 07:22:38;;;;;;;7.22;2.08;;;;;;;8.59;79.96;99998.53;7390451;19;20022;-59
2024/01/01 07:25:09;;;;;;;12.55;2.65;;;;;;;8.59;79.92;100007.28;7388461;19;20475;-58
2024/01/01 07:27:37;;;;;;;9.32;2.40;;;;;;;8.56;80.16;100007.50;7391112;19;20014;-58
2024/01/01 07:30:06;;;;;;;11.23;2.42;;;;;;;8.67;79.81;100004.88;7397597;19;20019;-59
2024/01/01 07:32:34;;;;;;;7.35;2.20;;;;;;;8.61;80.15;100005.34;7398670;19;20022;-58
2024/01/01 07:35:03;;;;;;;9.57;2.40;;;;;;;8.48;80.54;100007.25;7395087;19;20023;-58
2024/01/01 07:37:31;;;;;;;7.85;2.30;;;;;;;8.53;80.23;100008.56;7397234;19;20039;-59
2024/01/01 07:39:58;;;;;;;8.88;2.40;;;;;;;8.69;79.69;100007.38;7399772;19;20365;-59
2024/01/01 07:42:27;;;;;;;9.00;2.42;;;;;;;8.75;79.37;100010.41;7395561;19;20035;-59
2024/01/01 07:44:55;;;;;;;12.25;2.70;;;;;;;8.67;79.78;100011.97;7391786;19;20047;-59
2024/01/01 07:47:22;;;;;;;8.98;2.47;;;;;;;8.52;80.02;100012.19;7396585;19;20018;-58
2024/01/01 07:49:51;;;;;;;9.35;2.20;;;;;;;8.59;80.45;100009.09;7396811;19;20430;-57
2024/01/01 07:52:18;;;;;;;9.02;2.40;;;;;;;8.61;80.01;100012.44;7395321;19;20047;-55
2024/01/01 07:54:47;;;;;;;8.88;2.53;;;;;;;8.68;79.71;100016.28;7394333;19;20046;-58
2024/01/01 07:57:15;;;;;;;9.68;2.83;;;;;;;8.73;79.74;100019.38;7396299;19;20043;-56
2024/01/01 07:59:43;;;;;;;10.90;2.38;;;;;;;8.70;79.59;100019.63;7395023;19;20039;-59
2024/01/01 08:02:10;;;;;;;11.05;2.72;;;;;;;8.71;79.76;100018.69;7397200;19;20027;-58
2024/01/01 08:04:38;;;;;;;6.97;2.25;;;;;;;8.68;79.27;100029.47;7395071;19;20756;-57
2024/01/01 08:07:06;;;;;;;9.00;2.33;;;;;;;8.69;79.40;100020.59;7396385;19;20026;-58
2024/01/01 08:09:34;;;;;;;8.85;2.65;;;;;;;8.68;79.34;100027.66;7397060;19;20018;-57
2024/01/01 08:12:02;;;;;;;8.05;2.47;;;;;;;8.54;79.78;100031.34;7396996;19;20090;-59
2024/01/01 08:14:30;;;;;;;9.38;2.83;;;;;;;8.56;79.80;100025.97;7395800;19;20082;-56
2024/01/01 08:16:58;;;;;;;8.63;2.63;;;;;;;8.62;79.59;100030.78;7396205;19;20015;-58
2024/01/01 08:19:26;;;;;;;13.13;2.40;;;;;;;8.59;79.38;100020.47;7394606;19;20063;-57
2024/01/01 08:21:54;;;;;;;9.25;2.85;;;;;;;8.79;79.13;100027.66;7395794;19;20018;-57
2024/01/01 08:24:21;;;;;;;9.68;2.35;;;;;;;8.75;78.96;100034.16;7394680;19;20063;-59
2024/01/01 08:26:49;;;;;;;9.63;2.25;;;;;;;8.81;78.82;100027.53;7395812;19;20026;-57
2024/01/01 08:29:17;;;;;;;8.40;2.10;;;;;;;8.77;78.71;100036.66;7395712;19;20006;-58
2024/01/01 08:31:45;;;;;;;8.93;2.35;;;;;;;8.83;78.71;100041.47;7395787;19;20014;-58
2024/01/01 08:34:13;;;;;;;9.77;2.47;;;;;;;8.68;79.56;100040.03;7394171;19;20018;-54
2024/01/01 08:36:41;;;;;;;11.10;2.50;;;;;;;8.73;79.42;100030.78;7394749;19;20027;-57
2024/01/01 08:39:12;;;;;;;8.48;2.08;;;;;;;8.83;78.63;100045.91;7392441;19;20384;-58
2024/01/01 08:41:43;;;;;;;9.55;2.28;;;;;;;8.82;78.77;100042.44;7391278;19;20022;-58
2024/01/01 08:44:11;;;;;;;8.63;2.15;;;;;;;8.91;78.79;100041.72;7394993;19;20014;-57
2024/01/01 08:46:39;;;;;;;8.75;2.50;;;;;;;8.94;78.16;100044.13;7394509;19;20019;-57
2024/01/01 08:49:07;;;;;;;10.10;2.22;;;;;;;8.82;78.84;100047.72;7394538;19;20507;-53
2024/01/01 08:51:36;;;;;;;10.35;2.55;;;;;;;8.88;78.62;100049.88;7395205;19;20052;-55
2024/01/01 08:54:07;;;;;;;9.65;2.65;;;;;;;8.89;78.43;100056.84;7394083;19;20039;-56
2024/01/01 08:56:35;;;;;;;10.38;2.15;;;;;;;8.88;78.55;100054.31;7394356;19;20507;-59
2024/01/01 08:59:03;;;;;;;8.32;1.92;;;;;;;8.85;78.35;100057.19;7394949;19;20033;-57
2024/01/01 09:01:30;;;;;;;9.40;1.98;;;;;;;8.87;77.94;100053.47;7392854;19;20487;-58
2024/01/01 09:04:03;;;;;;;11.57;2.17;;;;;;;8.95;78.03;100066.91;7393818;19;20364;-59
2024/01/01 09:06:31;;;;;;;8.50;2.03;;;;;;;8.96;77.38;100065.13;7394210;19;20367;-56
2024/01/01 09:08:59;;;;;;;10.35;1.95;;;;;;;8.86;77.73;100064.16;7393435;19;20356;-58
2024/01/01 09:11:26;;;;;;;11.77;2.10;;;;;;;8.89;77.84;100063.91;7394161;19;20373;-58
2024/01/01 09:13:55;;;;;;;8.65;1.92;;;;;;;9.02;77.35;100076.03;7391485;19;20015;-58
2024/01/01 09:16:27;;;;;;;10.95;2.05;;;;;;;8.97;77.51;100067.66;7394505;19;20023;-58
2024/01/01 09:18:56;;;;;;;9.32;1.70;;;;;;;8.93;77.12;100079.41;7395068;19;20014;-58
2024/01/01 09:21:24;;;;;;;7.95;1.90;;;;;;;8.86;76.82;100086.13;7392975;19;20014;-58
2024/01/01 09:24:00;;;;;;;10.98;1.83;;;;;;;9.02;76.13;100089.25;7393720;19;20036;-59
2024/01/01 09:26:29;;;;;;;10.15;2.00;;;;;;;9.02;76.34;100085.78;7391701;19;20014;-59
2024/01/01 09:28:58;;;;;;;10.27;2.20;;;;;;;9.04;76.40;100075.91;7394464;19;20020;-58
2024/01/01 09:31:26;;;;;;;10.68;2.08;;;;;;;9.21;76.06;100090.47;7394445;19;20018;-59
2024/01/01 09:34:06;;;;;;;6.78;1.90;;;;;;;9.11;75.82;100086.84;7395918;19;20006;-58
2024/01/01 09:36:34;;;;;;;11.27;2.45;;;;;;;9.20;75.43;100086.97;7391987;19;20011;-58
2024/01/01 09:39:15;;;;;;;11.52;2.50;;;;;;;9.21;75.23;100098.38;7394245;19;20022;-58
2024/01/01 09:41:43;;;;;;;7.68;1.77;;;;;;;9.18;74.71;100103.91;7390713;19;20482;-59
2024/01/01 09:44:12;;;;;;;9.93;2.08;;;;;;;9.08;75.25;100113.50;7392736;19;20025;-59
2024/01/01 09:46:40;;;;;;;12.90;1.80;;;;;;;9.03;75.17;100106.75;7393687;19;20021;-57
2024/01/01 09:49:07;;;;;;;10.55;2.10;;;;;;;9.15;75.29;100112.06;7393041;19;20027;-58
2024/01/01 09:51:38;;;;;;;10.77;1.80;;;;;;;9.10;75.72;100108.94;7390412;19;20486;-59
2024/01/01 09:54:09;;;;;;;9.77;2.03;;;;;;;9.11;75.75;100119.38;7392208;19;20022;-59
2024/01/01 09:56:37;;;;;;;11.27;2.20;;;;;;;9.17;75.12;100107.50;7391231;19;20010;-59
2024/01/01 09:59:05;;;;;;;12.63;1.83;;;;;;;9.26;75.19;100115.53;7393030;19;20109;-59
2024/01/01 10:01:33;;;;;;;9.75;1.88;;;;;;;9.16;75.48;100119.88;7391637;19;20010;-58
2024/01/01 10:04:03;;;;;;;8.65;1.70;;;;;;;9.18;75.46;100114.47;7391619;19;20029;-59
2024/01/01 10:06:34;;;;;;;10.68;1.98;;;;;;;9.19;75.16;100113.50;7392164;19;20388;-59
2024/01/01 10:09:19;;;;;;;8.00;1.65;;;;;;;9.33;74.43;100117.72;7393172;19;20022;-58
2024/01/01 10:11:48;;;;;;;10.52;1.60;;;;;;;9.22;74.98;100124.66;7393118;19;20711;-54
2024/01/01 10:14:16;;;;;;;10.30;1.90;;;;;;;9.41;74.20;100129.34;7390657;19;20016;-59
2024/01/01 10:16:44;;;;;;;7.32;2.03;;;;;;;9.39;74.21;100123.34;7392108;19;20028;-59
2024/01/01 10:19:13;;;;;;;8.27;1.80;;;;;;;9.55;73.90;100122.97;7392493;19;20407;-59
2024/01/01 10:21:41;;;;;;;7.13;1.30;;;;;;;9.56;73.29;100119.38;7391080;19;20047;-59
2024/01/01 10:24:15;;;;;;;7.15;1.77;;;;;;;9.52;72.73;100110.84;7391107;19;20027;-59
2024/01/01 10:27:00;;;;;;;8.40;2.00;;;;;;;9.55;72.95;100117.69;7390494;19;20047;-59
2024/01/01 10:29:35;;;;;;;9.50;1.73;;;;;;;9.65;72.48;100118.63;7390932;19;20503;-58
2024/01/01 10:32:04;;;;;;;;;;;;;;;9.64;72.47;100126.69;7392844;19;20022;-56
2024/01/01 10:34:35;;;;;;;9.50;1.77;;;;;;;9.82;72.01;100117.28;7391180;19;19923;-56
2024/01/01 10:37:04;;;;;;;7.57;1.67;;;;;;;9.80;71.73;100131.56;7392052;19;20463;-59
2024/01/01 10:39:34;;;;;;;7.75;1.90;;;;;;;9.76;71.99;100126.53;7391894;19;20019;-58
2024/01/01 10:42:02;;;;;;;8.65;1.65;;;;;;;9.85;71.72;100143.47;7389030;19;20111;-57
2024/01/01 10:44:30;;;;;;;9.40;1.70;;;;;;;9.90;71.29;100133.34;7391364;19;20021;-57
2024/01/01 10:47:01;;;;;;;7.50;1.65;;;;;;;9.88;71.21;100142.38;7389870;19;20019;-57
2024/01/01 10:49:31;;;;;;;6.53;1.58;;;;;;;9.89;71.48;100130.84;7391433;19;20384;-57
2024/01/01 10:52:13;;;;;;;8.13;1.67;;;;;;;9.93;71.38;100134.94;7391375;19;20019;-57
2024/01/01 10:54:41;;;;;;;3.92;1.20;;;;;;;9.96;71.10;100142.63;7390173;19;20043;-56
2024/01/01 10:57:42;;;;;;;4.45;1.50;;;;;;;10.01;70.58;100143.06;7391060;19;20011;-55
2024/01/01 11:00:28;;;;;;;6.82;1.70;;;;;;;9.91;70.92;100144.78;7391236;19;20019;-58
2024/01/01 11:02:57;;;;;;;6.78;1.45;;;;;;;9.96;71.36;100138.16;7390908;19;20023;-57
2024/01/01 11:05:33;;;;;;;5.80;1.45;;;;;;;9.91;71.21;100150.06;7389071;19;20023;-57
2024/01/01 11:08:02;;;;;;;9.70;1.90;;;;;;;9.95;71.36;100146.22;7389859;19;20018;-57
2024/01/01 11:10:42;;;;;;;8.85;1.90;;;;;;;9.93;71.71;100153.44;7390727;19;20011;-58
2024/01/01 11:13:32;;;;;;;8.13;1.67;;;;;;;9.95;71.15;100167.38;7390716;19;20029;-57
2024/01/01 11:16:04;;;;;;;10.20;2.38;;;;;;;9.98;71.29;100161.84;7389710;19;20015;-57
2024/01/01 11:18:37;;;;;;;5.55;1.90;;;;;;;9.87;71.75;100167.97;7390467;19;20019;-56
2024/01/01 11:21:25;;;;;;;4.93;1.42;;;;;;;9.94;71.32;100170.97;7390068;19;20565;-57
2024/01/01 11:23:53;;;;;;;7.05;1.65;;;;;;;9.91;70.78;100166.78;7389634;19;20015;-57
2024/01/01 11:26:41;;;;;;;6.47;1.73;;;;;;;9.99;70.98;100168.78;7390319;19;20014;-58
2024/01/01 11:29:18;;;;;;;9.23;2.35;;;;;;;10.25;70.21;100164.06;7389087;19;20043;-58
2024/01/01 11:31:46;;;;;;;6.65;1.58;;;;;;;10.30;70.01;100164.53;7390083;19;20030;-53
2024/01/01 11:34:16;;;;;;;7.45;1.67;;;;;;;10.57;69.34;100163.22;7388453;19;20010;-55
2024/01/01 11:36:54;;;;;;;5.43;1.70;;;;;;;10.73;69.10;100155.69;7389965;19;20049;-53
2024/01/01 11:39:24;;;;;;;9.68;2.38;;;;;;;10.68;68.83;100161.38;7390335;19;20510;-54
2024/01/01 11:41:55;;;;;;;6.88;1.65;;;;;;;10.79;68.57;100171.03;7386983;19;20025;-53